Silbia Y Beni — EA7451 — position and weather

sailwx.info

Track history (hours):
 
Tides and Currents Weather Stations Pressure Air Temp Water Temp Dewpoint Dewpoint Depression Visibility Wind Speed Wind Dir Waves Ship Positions

Silbia Y Beni

Last reported at 2018-Jun-21 13:32 UTC. Time now 2018-Jun-22 01:41 UTC.
Position N 41°13' E 001°44'.

Length 18 m.

Type: Fishing. MMSI: 224123580.

Date/timePositionNaut miles runAvg speedWind from/ knotsBaromVisibWave heightAir tempDewpointWater temp
2018-Jun-21 13:32N 41°13' E 001°44'0 4.1
2018-Jun-21 13:30N 41°13' E 001°44'4 8.0
2018-Jun-21 13:00N 41°09' E 001°47'1 2.1
2018-Jun-21 12:25N 41°08' E 001°48'2 0.7
2018-Jun-21 09:15N 41°08' E 001°50'1 3.2
2018-Jun-21 08:54N 41°08' E 001°49'0 0.7
2018-Jun-21 08:24N 41°08' E 001°49'1 2.8
2018-Jun-21 08:00N 41°08' E 001°50'3 0.9
2018-Jun-21 05:03N 41°10' E 001°47'110.7
2018-Jun-21 04:57N 41°10' E 001°46'2 4.6
2018-Jun-21 04:26N 41°12' E 001°44'4 0.3
2018-Jun-20 14:01N 41°08' E 001°46'517.8
2018-Jun-20 13:45N 41°12' E 001°44'1 2.9
2018-Jun-20 13:30N 41°12' E 001°44'6 6.6
2018-Jun-20 12:37N 41°07' E 001°49'0 0.7
2018-Jun-20 12:23N 41°07' E 001°49'2 0.9
2018-Jun-20 09:37N 41°08' E 001°46'0 0.7
2018-Jun-20 09:27N 41°08' E 001°46'0 1.0
2018-Jun-20 08:59N 41°08' E 001°45'1 1.3
2018-Jun-20 08:30N 41°08' E 001°46'2 4.2
2018-Jun-20 08:00N 41°08' E 001°43'1 1.6
2018-Jun-20 07:28N 41°08' E 001°42'0 0.3
2018-Jun-20 06:59N 41°08' E 001°42'1 2.9
2018-Jun-20 06:29N 41°08' E 001°44'1 2.9
2018-Jun-20 05:58N 41°08' E 001°46'1 2.9
2018-Jun-20 05:28N 41°08' E 001°48'2 4.4
2018-Jun-20 05:00N 41°10' E 001°47'3 0.2
2018-Jun-19 13:35N 41°12' E 001°44'0 3.0
2018-Jun-19 13:30N 41°12' E 001°44'5 2.3
2018-Jun-19 11:11N 41°07' E 001°43'1 2.6
2018-Jun-19 10:56N 41°07' E 001°43'2 2.8
2018-Jun-19 10:06N 41°07' E 001°47'1 2.8
2018-Jun-19 09:35N 41°07' E 001°48'0 2.7
2018-Jun-19 09:26N 41°07' E 001°49'2 3.1
2018-Jun-19 08:57N 41°09' E 001°50'1 1.5
2018-Jun-19 08:26N 41°08' E 001°49'1 0.2
2018-Jun-19 05:13N 41°08' E 001°48'210.0
2018-Jun-19 05:00N 41°10' E 001°46'3 5.8
2018-Jun-19 04:25N 41°13' E 001°44'0 0.0
2018-Jun-18 13:02N 41°13' E 001°44'0 6.6
2018-Jun-18 13:00N 41°12' E 001°44'5 3.2
2018-Jun-18 11:23N 41°08' E 001°42'1 2.9
2018-Jun-18 10:57N 41°08' E 001°43'1 2.9
2018-Jun-18 10:26N 41°08' E 001°45'2 2.8
2018-Jun-18 09:54N 41°08' E 001°47'1 2.9
2018-Jun-18 09:24N 41°08' E 001°49'1 2.9
2018-Jun-18 08:58N 41°08' E 001°51'1 2.2
2018-Jun-18 08:29N 41°08' E 001°49'1 1.5
2018-Jun-18 07:56N 41°08' E 001°50'1 0.4
2018-Jun-18 05:18N 41°09' E 001°50'3 9.1
2018-Jun-18 04:59N 41°10' E 001°46'3 5.6
2018-Jun-18 04:26N 41°13' E 001°44'  
2018-Jun-15 14:25N 41°13' E 001°44'0 0.0
2018-Jun-15 13:58N 41°13' E 001°44'0 0.0
2018-Jun-15 13:28N 41°13' E 001°44'0 0.2
2018-Jun-15 12:57N 41°13' E 001°44'3 6.4
2018-Jun-15 12:30N 41°11' E 001°42'3 2.9
2018-Jun-15 11:25N 41°08' E 001°40'2 3.0
2018-Jun-15 10:52N 41°08' E 001°43'3 2.9
2018-Jun-15 09:53N 41°07' E 001°46'1 2.8
2018-Jun-15 09:30N 41°08' E 001°48'1 2.9
2018-Jun-15 08:59N 41°08' E 001°50'1 0.3
2018-Jun-15 05:54N 41°08' E 001°51'2 2.8
2018-Jun-15 05:21N 41°08' E 001°49'3 7.5
2018-Jun-15 05:00N 41°10' E 001°46'3 5.8
2018-Jun-15 04:26N 41°13' E 001°44'0 0.0
2018-Jun-14 13:13N 41°13' E 001°44'2 8.3
2018-Jun-14 13:00N 41°11' E 001°45'4 5.8
2018-Jun-14 12:24N 41°08' E 001°48'0 0.1
2018-Jun-14 08:39N 41°08' E 001°49'0 0.4
2018-Jun-14 08:26N 41°08' E 001°49'1 2.9
2018-Jun-14 07:58N 41°08' E 001°47'1 2.9
2018-Jun-14 07:28N 41°08' E 001°45'3 1.2
2018-Jun-14 05:01N 41°10' E 001°47'011.4
2018-Jun-14 05:00N 41°11' E 001°47'3 6.2
2018-Jun-14 04:31N 41°13' E 001°44'0 0.0
2018-Jun-13 13:18N 41°13' E 001°44'3 7.9
2018-Jun-13 12:57N 41°10' E 001°43'3 4.9
2018-Jun-13 12:25N 41°07' E 001°43'1 2.1
2018-Jun-13 11:53N 41°07' E 001°42'1 2.7
2018-Jun-13 11:23N 41°07' E 001°40'1 2.9
2018-Jun-13 11:00N 41°08' E 001°41'1 2.9
2018-Jun-13 10:30N 41°08' E 001°43'1 2.9
2018-Jun-13 10:00N 41°08' E 001°45'1 2.9
2018-Jun-13 09:29N 41°08' E 001°47'2 3.1
2018-Jun-13 08:59N 41°08' E 001°49'0 0.4
2018-Jun-13 08:23N 41°08' E 001°49'2 0.7
2018-Jun-13 05:01N 41°10' E 001°47'011.1
2018-Jun-13 05:00N 41°10' E 001°46'3 6.0
2018-Jun-13 04:26N 41°13' E 001°44'0 0.0
2018-Jun-12 13:51N 41°13' E 001°44'2 7.0
2018-Jun-12 13:30N 41°11' E 001°45'4 4.2
2018-Jun-12 12:27N 41°07' E 001°48'1 2.8
2018-Jun-12 11:58N 41°07' E 001°47'1 2.9
2018-Jun-12 11:28N 41°07' E 001°45'1 2.6
2018-Jun-12 10:58N 41°07' E 001°43'1 2.6
2018-Jun-12 10:25N 41°06' E 001°41'2 0.9
2018-Jun-12 08:43N 41°07' E 001°40'1 2.9
2018-Jun-12 08:21N 41°08' E 001°41'1 2.9
2018-Jun-12 08:00N 41°08' E 001°43'2 2.9
2018-Jun-12 07:28N 41°08' E 001°45'1 2.9
2018-Jun-12 07:00N 41°07' E 001°47'0 0.3
2018-Jun-12 05:58N 41°08' E 001°46'1 2.9
2018-Jun-12 05:29N 41°08' E 001°45'2 4.0
2018-Jun-12 04:59N 41°10' E 001°43'3 5.4
2018-Jun-12 04:22N 41°13' E 001°44'  
Track history (hours):
 
Tides and Currents Weather Stations Pressure Air Temp Water Temp Dewpoint Dewpoint Depression Visibility Wind Speed Wind Dir Waves Ship Positions

Silbia Y Beni

Last reported at 2018-Jun-21 13:32 UTC. Time now 2018-Jun-22 01:41 UTC.
Position N 41°13' E 001°44'.

Length 18 m.

Type: Fishing. MMSI: 224123580.

Date/timePositionNaut miles runAvg speedWind from/ knotsBaromVisibWave heightAir tempDewpointWater temp
2018-Jun-21 13:32N 41°13' E 001°44'0 4.1
2018-Jun-21 13:30N 41°13' E 001°44'4 8.0
2018-Jun-21 13:00N 41°09' E 001°47'1 2.1
2018-Jun-21 12:25N 41°08' E 001°48'2 0.7
2018-Jun-21 09:15N 41°08' E 001°50'1 3.2
2018-Jun-21 08:54N 41°08' E 001°49'0 0.7
2018-Jun-21 08:24N 41°08' E 001°49'1 2.8
2018-Jun-21 08:00N 41°08' E 001°50'3 0.9
2018-Jun-21 05:03N 41°10' E 001°47'110.7
2018-Jun-21 04:57N 41°10' E 001°46'2 4.6
2018-Jun-21 04:26N 41°12' E 001°44'4 0.3
2018-Jun-20 14:01N 41°08' E 001°46'517.8
2018-Jun-20 13:45N 41°12' E 001°44'1 2.9
2018-Jun-20 13:30N 41°12' E 001°44'6 6.6
2018-Jun-20 12:37N 41°07' E 001°49'0 0.7
2018-Jun-20 12:23N 41°07' E 001°49'2 0.9
2018-Jun-20 09:37N 41°08' E 001°46'0 0.7
2018-Jun-20 09:27N 41°08' E 001°46'0 1.0
2018-Jun-20 08:59N 41°08' E 001°45'1 1.3
2018-Jun-20 08:30N 41°08' E 001°46'2 4.2
2018-Jun-20 08:00N 41°08' E 001°43'1 1.6
2018-Jun-20 07:28N 41°08' E 001°42'0 0.3
2018-Jun-20 06:59N 41°08' E 001°42'1 2.9
2018-Jun-20 06:29N 41°08' E 001°44'1 2.9
2018-Jun-20 05:58N 41°08' E 001°46'1 2.9
2018-Jun-20 05:28N 41°08' E 001°48'2 4.4
2018-Jun-20 05:00N 41°10' E 001°47'3 0.2
2018-Jun-19 13:35N 41°12' E 001°44'0 3.0
2018-Jun-19 13:30N 41°12' E 001°44'5 2.3
2018-Jun-19 11:11N 41°07' E 001°43'1 2.6
2018-Jun-19 10:56N 41°07' E 001°43'2 2.8
2018-Jun-19 10:06N 41°07' E 001°47'1 2.8
2018-Jun-19 09:35N 41°07' E 001°48'0 2.7
2018-Jun-19 09:26N 41°07' E 001°49'2 3.1
2018-Jun-19 08:57N 41°09' E 001°50'1 1.5
2018-Jun-19 08:26N 41°08' E 001°49'1 0.2
2018-Jun-19 05:13N 41°08' E 001°48'210.0
2018-Jun-19 05:00N 41°10' E 001°46'3 5.8
2018-Jun-19 04:25N 41°13' E 001°44'0 0.0
2018-Jun-18 13:02N 41°13' E 001°44'0 6.6
2018-Jun-18 13:00N 41°12' E 001°44'5 3.2
2018-Jun-18 11:23N 41°08' E 001°42'1 2.9
2018-Jun-18 10:57N 41°08' E 001°43'1 2.9
2018-Jun-18 10:26N 41°08' E 001°45'2 2.8
2018-Jun-18 09:54N 41°08' E 001°47'1 2.9
2018-Jun-18 09:24N 41°08' E 001°49'1 2.9
2018-Jun-18 08:58N 41°08' E 001°51'1 2.2
2018-Jun-18 08:29N 41°08' E 001°49'1 1.5
2018-Jun-18 07:56N 41°08' E 001°50'1 0.4
2018-Jun-18 05:18N 41°09' E 001°50'3 9.1
2018-Jun-18 04:59N 41°10' E 001°46'3 5.6
2018-Jun-18 04:26N 41°13' E 001°44'  
2018-Jun-15 14:25N 41°13' E 001°44'0 0.0
2018-Jun-15 13:58N 41°13' E 001°44'0 0.0
2018-Jun-15 13:28N 41°13' E 001°44'0 0.2
2018-Jun-15 12:57N 41°13' E 001°44'3 6.4
2018-Jun-15 12:30N 41°11' E 001°42'3 2.9
2018-Jun-15 11:25N 41°08' E 001°40'2 3.0
2018-Jun-15 10:52N 41°08' E 001°43'3 2.9
2018-Jun-15 09:53N 41°07' E 001°46'1 2.8
2018-Jun-15 09:30N 41°08' E 001°48'1 2.9
2018-Jun-15 08:59N 41°08' E 001°50'1 0.3
2018-Jun-15 05:54N 41°08' E 001°51'2 2.8
2018-Jun-15 05:21N 41°08' E 001°49'3 7.5
2018-Jun-15 05:00N 41°10' E 001°46'3 5.8
2018-Jun-15 04:26N 41°13' E 001°44'0 0.0
2018-Jun-14 13:13N 41°13' E 001°44'2 8.3
2018-Jun-14 13:00N 41°11' E 001°45'4 5.8
2018-Jun-14 12:24N 41°08' E 001°48'0 0.1
2018-Jun-14 08:39N 41°08' E 001°49'0 0.4
2018-Jun-14 08:26N 41°08' E 001°49'1 2.9
2018-Jun-14 07:58N 41°08' E 001°47'1 2.9
2018-Jun-14 07:28N 41°08' E 001°45'3 1.2
2018-Jun-14 05:01N 41°10' E 001°47'011.4
2018-Jun-14 05:00N 41°11' E 001°47'3 6.2
2018-Jun-14 04:31N 41°13' E 001°44'0 0.0
2018-Jun-13 13:18N 41°13' E 001°44'3 7.9
2018-Jun-13 12:57N 41°10' E 001°43'3 4.9
2018-Jun-13 12:25N 41°07' E 001°43'1 2.1
2018-Jun-13 11:53N 41°07' E 001°42'1 2.7
2018-Jun-13 11:23N 41°07' E 001°40'1 2.9
2018-Jun-13 11:00N 41°08' E 001°41'1 2.9
2018-Jun-13 10:30N 41°08' E 001°43'1 2.9
2018-Jun-13 10:00N 41°08' E 001°45'1 2.9
2018-Jun-13 09:29N 41°08' E 001°47'2 3.1
2018-Jun-13 08:59N 41°08' E 001°49'0 0.4
2018-Jun-13 08:23N 41°08' E 001°49'2 0.7
2018-Jun-13 05:01N 41°10' E 001°47'011.1
2018-Jun-13 05:00N 41°10' E 001°46'3 6.0
2018-Jun-13 04:26N 41°13' E 001°44'0 0.0
2018-Jun-12 13:51N 41°13' E 001°44'2 7.0
2018-Jun-12 13:30N 41°11' E 001°45'4 4.2
2018-Jun-12 12:27N 41°07' E 001°48'1 2.8
2018-Jun-12 11:58N 41°07' E 001°47'1 2.9
2018-Jun-12 11:28N 41°07' E 001°45'1 2.6
2018-Jun-12 10:58N 41°07' E 001°43'1 2.6
2018-Jun-12 10:25N 41°06' E 001°41'2 0.9
2018-Jun-12 08:43N 41°07' E 001°40'1 2.9
2018-Jun-12 08:21N 41°08' E 001°41'1 2.9
2018-Jun-12 08:00N 41°08' E 001°43'2 2.9
2018-Jun-12 07:28N 41°08' E 001°45'1 2.9
2018-Jun-12 07:00N 41°07' E 001°47'0 0.3
2018-Jun-12 05:58N 41°08' E 001°46'1 2.9
2018-Jun-12 05:29N 41°08' E 001°45'2 4.0
2018-Jun-12 04:59N 41°10' E 001°43'3 5.4
2018-Jun-12 04:22N 41°13' E 001°44'  

Dump ship's entire track history